createdAt,value
2023-04-18T00:01:19.260Z,97429.53
2023-04-18T00:03:47.681Z,97441.72
2023-04-18T00:06:16.119Z,97438.94
2023-04-18T00:08:45.911Z,97421.84
2023-04-18T00:11:14.324Z,97417.78
2023-04-18T00:13:42.548Z,97417.16
2023-04-18T00:16:13.441Z,97449.31
2023-04-18T00:18:41.994Z,97436.53
2023-04-18T00:21:10.202Z,97253.28
2023-04-18T00:23:38.731Z,97426.03
2023-04-18T00:26:08.460Z,97440.81
2023-04-18T00:28:36.732Z,97406.16
2023-04-18T00:31:05.137Z,97379.88
2023-04-18T00:33:33.727Z,97437.72
2023-04-18T00:36:02.054Z,97431.69
2023-04-18T00:38:30.293Z,97432.56
2023-04-18T00:40:58.563Z,97407.50
2023-04-18T00:43:28.396Z,97430.00
2023-04-18T00:45:57.265Z,97447.59
2023-04-18T00:48:26.002Z,97394.25
2023-04-18T00:50:55.493Z,97426.09
2023-04-18T00:53:24.126Z,97419.88
2023-04-18T00:55:52.759Z,97339.69
2023-04-18T00:58:21.786Z,97355.81
2023-04-18T01:00:52.276Z,97420.78
2023-04-18T01:03:22.972Z,97284.59
2023-04-18T01:05:51.560Z,97410.19
2023-04-18T01:08:20.671Z,97357.78
2023-04-18T01:10:49.094Z,97304.78
2023-04-18T01:13:18.943Z,97421.97
2023-04-18T01:15:48.712Z,97404.03
2023-04-18T01:18:19.314Z,97412.31
2023-04-18T01:20:49.280Z,97415.50
2023-04-18T01:23:19.003Z,97417.63
2023-04-18T01:25:50.663Z,97390.75
2023-04-18T01:28:21.426Z,97415.53
2023-04-18T01:30:49.712Z,97395.28
2023-04-18T01:33:18.118Z,97201.16
2023-04-18T01:35:46.800Z,97405.00
2023-04-18T01:38:15.032Z,97398.09
2023-04-18T01:40:43.440Z,97325.91
2023-04-18T01:43:13.150Z,97344.88
2023-04-18T01:45:41.531Z,97404.38
2023-04-18T01:48:09.828Z,97329.00
2023-04-18T01:50:38.108Z,97404.41
2023-04-18T01:53:06.422Z,97387.94
2023-04-18T01:55:34.916Z,97414.66
2023-04-18T01:58:03.207Z,97406.44
2023-04-18T02:00:32.907Z,97355.41
2023-04-18T02:03:01.481Z,97406.53
2023-04-18T02:05:30.016Z,97412.41
2023-04-18T02:07:58.361Z,97406.25
2023-04-18T02:10:26.675Z,97404.47
2023-04-18T02:12:54.930Z,97385.00
2023-04-18T02:15:25.329Z,97382.13
2023-04-18T02:17:55.503Z,97355.59
2023-04-18T02:20:26.275Z,97362.00
2023-04-18T02:22:54.581Z,97366.31
2023-04-18T02:25:27.032Z,97406.28
2023-04-18T02:27:55.432Z,97403.75
2023-04-18T02:30:24.397Z,97407.13
2023-04-18T02:32:53.453Z,97322.94
2023-04-18T02:35:23.385Z,97413.97
2023-04-18T02:37:54.014Z,97415.72
2023-04-18T02:40:22.322Z,97415.94
2023-04-18T02:42:50.593Z,97416.19
2023-04-18T02:45:19.306Z,97094.16
2023-04-18T02:47:55.274Z,97360.50
2023-04-18T02:50:27.187Z,97341.19
2023-04-18T02:52:59.120Z,97415.66
2023-04-18T02:55:27.868Z,97421.97
2023-04-18T02:57:56.090Z,97423.47
2023-04-18T03:00:24.637Z,97393.53
2023-04-18T03:02:53.504Z,97424.38
2023-04-18T03:05:22.971Z,97190.91
2023-04-18T03:07:52.644Z,97417.72
2023-04-18T03:10:21.153Z,97426.50
2023-04-18T03:12:49.404Z,97423.94
2023-04-18T03:15:17.743Z,97427.75
2023-04-18T03:17:46.064Z,97424.53
2023-04-18T03:20:14.661Z,97434.81
2023-04-18T03:22:42.975Z,97427.88
2023-04-18T03:25:13.055Z,97425.44
2023-04-18T03:27:42.934Z,97419.16
2023-04-18T03:30:11.579Z,97416.53
2023-04-18T03:32:39.927Z,97420.31
2023-04-18T03:35:08.481Z,97335.53
2023-04-18T03:37:36.817Z,97363.97
2023-04-18T03:40:05.585Z,97410.31
2023-04-18T03:42:35.314Z,97416.13
2023-04-18T03:45:03.767Z,97419.41
2023-04-18T03:47:33.651Z,97402.25
2023-04-18T03:50:02.074Z,97426.47
2023-04-18T03:52:30.412Z,97349.69
2023-04-18T03:54:58.958Z,97434.59
2023-04-18T03:57:27.303Z,97432.16
2023-04-18T03:59:57.078Z,97436.63
2023-04-18T04:02:25.625Z,97434.91
2023-04-18T04:04:54.033Z,97397.09
2023-04-18T04:07:22.346Z,97408.13
2023-04-18T04:09:50.650Z,97433.09
2023-04-18T04:12:19.038Z,97445.94
2023-04-18T04:14:47.326Z,97419.38
2023-04-18T04:17:17.441Z,97409.28
2023-04-18T04:19:45.709Z,97447.56
2023-04-18T04:22:13.978Z,97450.69
2023-04-18T04:24:43.051Z,97129.44
2023-04-18T04:27:12.743Z,97425.22
2023-04-18T04:29:41.505Z,97460.56
2023-04-18T04:32:09.828Z,97463.97
2023-04-18T04:34:41.529Z,97422.84
2023-04-18T04:37:09.901Z,97458.84
2023-04-18T04:39:38.113Z,97462.38
2023-04-18T04:42:06.461Z,97469.41
2023-04-18T04:44:35.731Z,97459.88
2023-04-18T04:47:04.017Z,97455.69
2023-04-18T04:49:32.399Z,97460.09
2023-04-18T04:52:02.898Z,97466.69
2023-04-18T04:54:31.430Z,97468.28
2023-04-18T04:56:59.664Z,97458.84
2023-04-18T04:59:29.990Z,97462.91
2023-04-18T05:01:58.743Z,97442.63
2023-04-18T05:04:27.155Z,97475.13
2023-04-18T05:06:55.673Z,97467.19
2023-04-18T05:09:26.275Z,97470.66
2023-04-18T05:11:54.548Z,97468.06
2023-04-18T05:14:22.804Z,97452.50
2023-04-18T05:16:51.093Z,97464.38
2023-04-18T05:19:19.458Z,97463.19
2023-04-18T05:21:47.741Z,97457.97
2023-04-18T05:24:16.217Z,97478.47
2023-04-18T05:26:46.325Z,97416.19
2023-04-18T05:29:14.516Z,97473.97
2023-04-18T05:31:42.791Z,97476.91
2023-04-18T05:34:11.126Z,97461.81
2023-04-18T05:36:39.460Z,97456.09
2023-04-18T05:39:08.248Z,97483.19
2023-04-18T05:41:36.530Z,97475.19
2023-04-18T05:44:06.391Z,97478.50
2023-04-18T05:46:34.953Z,97478.19
2023-04-18T05:49:03.875Z,97479.03
2023-04-18T05:51:32.364Z,97476.78
2023-04-18T05:54:00.604Z,97430.03
2023-04-18T05:56:29.012Z,97478.56
2023-04-18T05:58:57.886Z,97461.84
2023-04-18T06:01:27.699Z,97477.13
2023-04-18T06:03:56.728Z,97477.03
2023-04-18T06:06:24.838Z,97479.53
2023-04-18T06:08:55.382Z,97486.22
2023-04-18T06:11:23.504Z,97478.28
2023-04-18T06:13:51.512Z,97485.59
2023-04-18T06:16:19.622Z,97473.47
2023-04-18T06:18:49.535Z,97453.00
2023-04-18T06:21:17.988Z,97488.31
2023-04-18T06:23:46.420Z,97403.78
2023-04-18T06:26:15.342Z,97484.81
2023-04-18T06:28:43.709Z,97488.94
2023-04-18T06:31:13.383Z,97443.31
2023-04-18T06:33:42.048Z,97489.00
2023-04-18T06:36:12.092Z,97499.69
2023-04-18T06:38:40.334Z,97475.19
2023-04-18T06:41:08.580Z,97071.56
2023-04-18T06:43:37.582Z,97477.69
2023-04-18T06:46:06.676Z,97494.50
2023-04-18T06:48:35.040Z,97456.19
2023-04-18T06:51:03.458Z,97482.47
2023-04-18T06:53:34.333Z,97425.00
2023-04-18T06:56:02.729Z,97500.22
2023-04-18T06:58:31.294Z,97400.91
2023-04-18T07:00:59.570Z,97504.09
2023-04-18T07:03:27.971Z,97515.31
2023-04-18T07:05:56.946Z,97504.31
2023-04-18T07:08:25.193Z,97516.63
2023-04-18T07:10:54.934Z,97506.53
2023-04-18T07:13:23.279Z,97465.81
2023-04-18T07:15:51.606Z,97399.78
2023-04-18T07:18:30.343Z,97493.06
2023-04-18T07:21:03.136Z,97390.59
2023-04-18T07:23:31.435Z,97461.81
2023-04-18T07:26:02.780Z,97457.31
2023-04-18T07:28:32.435Z,97485.88
2023-04-18T07:31:01.419Z,97495.06
2023-04-18T07:33:31.867Z,97504.31
2023-04-18T07:36:00.253Z,97475.59
2023-04-18T07:38:29.043Z,97498.34
2023-04-18T07:41:03.270Z,97502.59
2023-04-18T07:43:31.609Z,97499.75
2023-04-18T07:46:00.239Z,97505.28
2023-04-18T07:48:28.773Z,97496.09
2023-04-18T07:50:57.075Z,97504.28
2023-04-18T07:53:25.596Z,97462.94
2023-04-18T07:55:54.513Z,97507.63
2023-04-18T07:58:24.192Z,97507.78
2023-04-18T08:00:52.486Z,97504.50
2023-04-18T08:03:21.110Z,97491.84
2023-04-18T08:05:50.295Z,97508.69
2023-04-18T08:08:18.917Z,97514.84
2023-04-18T08:10:47.216Z,97503.16
2023-04-18T08:13:15.651Z,97520.13
2023-04-18T08:15:45.543Z,97522.19
2023-04-18T08:18:13.814Z,97466.94
2023-04-18T08:20:42.113Z,97443.59
2023-04-18T08:23:12.772Z,97502.44
2023-04-18T08:25:41.387Z,97529.13
2023-04-18T08:28:10.113Z,97510.06
2023-04-18T08:30:38.726Z,97520.63
2023-04-18T08:33:08.456Z,97533.06
2023-04-18T08:35:36.982Z,97531.25
2023-04-18T08:38:05.295Z,97529.63
2023-04-18T08:40:33.723Z,97535.22
2023-04-18T08:43:05.142Z,97542.50
2023-04-18T08:45:33.548Z,97539.06
2023-04-18T08:48:03.903Z,97541.41
2023-04-18T08:50:33.865Z,97524.56
2023-04-18T08:53:02.399Z,97515.59
2023-04-18T08:55:30.795Z,97544.19
2023-04-18T08:57:59.790Z,97457.59
2023-04-18T09:00:29.410Z,97390.22
2023-04-18T09:02:57.988Z,97456.56
2023-04-18T09:05:28.134Z,97527.59
2023-04-18T09:07:58.162Z,97551.16
2023-04-18T09:10:29.128Z,97553.44
2023-04-18T09:12:59.204Z,97461.38
2023-04-18T09:15:29.530Z,97566.34
2023-04-18T09:18:00.104Z,97437.69
2023-04-18T09:20:34.995Z,97563.50
2023-04-18T09:23:06.578Z,97558.00
2023-04-18T09:25:40.154Z,97568.13
2023-04-18T09:28:24.564Z,97549.00
2023-04-18T09:30:53.404Z,97456.66
2023-04-18T09:33:28.373Z,97548.81
2023-04-18T09:35:57.354Z,97554.44
2023-04-18T09:41:21.543Z,97553.94
2023-04-18T09:43:50.120Z,97529.81
2023-04-18T09:46:18.859Z,97542.25
2023-04-18T09:48:47.360Z,97525.72
2023-04-18T09:51:17.200Z,97502.91
2023-04-18T09:53:47.938Z,97534.50
2023-04-18T09:56:26.192Z,97556.44
2023-04-18T09:58:58.773Z,97517.47
2023-04-18T10:01:29.834Z,97441.03
2023-04-18T10:03:59.174Z,97494.03
2023-04-18T10:06:29.916Z,97526.34
2023-04-18T10:08:58.566Z,97509.69
2023-04-18T10:11:28.886Z,97547.03
2023-04-18T10:13:59.954Z,97494.84
2023-04-18T10:16:29.640Z,97538.41
2023-04-18T10:18:58.521Z,97548.03
2023-04-18T10:21:29.993Z,97553.38
2023-04-18T10:23:58.308Z,97547.53
2023-04-18T10:26:50.520Z,97536.47
2023-04-18T10:29:19.088Z,97545.50
2023-04-18T10:31:48.491Z,97547.34
2023-04-18T10:34:19.818Z,97552.19
2023-04-18T10:37:06.480Z,97531.91
2023-04-18T10:39:50.033Z,97520.91
2023-04-18T10:42:20.054Z,97552.09
2023-04-18T10:45:23.546Z,97545.16
2023-04-18T10:47:52.162Z,97547.84
2023-04-18T10:50:20.429Z,97553.75
2023-04-18T10:52:48.756Z,97547.94
2023-04-18T10:55:20.220Z,97545.47
2023-04-18T10:57:51.996Z,97539.09
2023-04-18T11:00:22.094Z,97519.38
2023-04-18T11:02:53.800Z,97539.31
2023-04-18T11:05:24.817Z,97510.06
2023-04-18T11:07:53.456Z,97529.19
2023-04-18T11:10:25.005Z,97529.19
2023-04-18T11:12:57.536Z,97540.22
2023-04-18T11:15:29.138Z,97541.78
2023-04-18T11:18:00.930Z,97542.56
2023-04-18T11:20:30.093Z,97464.75
2023-04-18T11:23:00.455Z,97532.88
2023-04-18T11:25:30.883Z,97532.00
2023-04-18T11:28:02.518Z,97535.53
2023-04-18T11:30:38.680Z,97545.78
2023-04-18T11:33:08.912Z,97542.63
2023-04-18T11:35:41.348Z,97522.88
2023-04-18T11:38:10.840Z,97533.25
2023-04-18T11:40:39.471Z,97526.22
2023-04-18T11:43:09.264Z,97533.06
2023-04-18T11:45:37.518Z,97543.53
2023-04-18T11:48:06.304Z,97536.47
2023-04-18T11:50:38.388Z,97543.53
2023-04-18T11:53:07.079Z,97540.47
2023-04-18T11:55:35.552Z,97534.84
2023-04-18T11:58:04.511Z,97544.09
2023-04-18T12:00:36.244Z,97544.94
2023-04-18T12:03:07.303Z,97535.09
2023-04-18T12:05:38.137Z,97517.72
2023-04-18T12:08:08.252Z,97545.22
2023-04-18T12:10:37.381Z,97543.47
2023-04-18T12:13:08.777Z,97537.81
2023-04-18T12:15:40.653Z,97549.97
2023-04-18T12:18:09.613Z,97544.00
2023-04-18T12:20:39.971Z,97537.59
2023-04-18T12:23:08.785Z,97549.97
2023-04-18T12:25:37.581Z,97479.50
2023-04-18T12:28:17.043Z,97549.03
2023-04-18T12:30:46.694Z,97541.56
2023-04-18T12:33:15.121Z,97496.94
2023-04-18T12:35:43.403Z,97549.09
2023-04-18T12:38:11.756Z,97541.56
2023-04-18T12:40:41.039Z,97532.56
2023-04-18T12:43:09.448Z,97547.88
2023-04-18T12:45:37.673Z,97521.81
2023-04-18T12:48:07.868Z,97458.09
2023-04-18T12:50:36.256Z,97441.00
2023-04-18T12:53:04.556Z,97548.03
2023-04-18T12:55:33.022Z,97531.88
2023-04-18T12:58:01.617Z,97544.13
2023-04-18T13:00:31.931Z,97526.75
2023-04-18T13:03:00.932Z,97529.34
2023-04-18T13:05:33.426Z,97541.50
2023-04-18T13:10:34.006Z,97543.03
2023-04-18T13:13:02.499Z,97541.19
2023-04-18T13:15:31.108Z,97347.03
2023-04-18T13:18:04.818Z,97510.06
2023-04-18T13:20:36.063Z,97536.16
2023-04-18T13:23:04.635Z,97524.50
2023-04-18T13:25:33.035Z,97533.00
2023-04-18T13:28:01.544Z,97540.53
2023-04-18T13:30:29.801Z,97521.16
2023-04-18T13:32:58.136Z,97565.75
2023-04-18T13:35:40.163Z,97548.41
2023-04-18T13:38:11.199Z,97471.03
2023-04-18T13:40:39.878Z,97501.34
2023-04-18T13:43:08.221Z,97539.47
2023-04-18T13:45:36.494Z,97544.19
2023-04-18T13:48:05.153Z,97534.69
2023-04-18T13:50:33.529Z,97546.22
2023-04-18T13:53:01.886Z,97527.88
2023-04-18T13:55:32.065Z,97546.22
2023-04-18T13:58:00.828Z,97546.00
2023-04-18T14:00:30.420Z,97554.41
2023-04-18T14:02:58.825Z,97535.38
2023-04-18T14:05:27.481Z,97557.53
2023-04-18T14:08:02.045Z,97515.53
2023-04-18T14:10:32.437Z,97565.59
2023-04-18T14:13:00.902Z,97549.59
2023-04-18T14:15:29.348Z,97575.47
2023-04-18T14:17:57.826Z,97529.06
2023-04-18T14:20:26.864Z,97535.44
2023-04-18T14:22:55.232Z,97554.81
2023-04-18T14:25:24.018Z,97570.16
2023-04-18T14:28:05.773Z,97507.78
2023-04-18T14:30:34.182Z,97587.31
2023-04-18T14:33:04.553Z,97585.19
2023-04-18T14:35:33.802Z,97528.50
2023-04-18T14:38:04.471Z,97537.63
2023-04-18T14:40:33.113Z,97592.75
2023-04-18T14:43:03.957Z,97592.34
2023-04-18T14:45:35.071Z,97641.97
2023-04-18T14:48:03.900Z,97599.94
2023-04-18T14:50:32.578Z,97607.56
2023-04-18T14:53:01.564Z,97597.84
2023-04-18T14:55:30.349Z,97537.84
2023-04-18T14:57:59.656Z,97607.13
2023-04-18T15:00:29.622Z,97521.47
2023-04-18T15:02:58.301Z,97575.41
2023-04-18T15:05:27.307Z,97542.44
2023-04-18T15:07:56.457Z,97589.75
2023-04-18T15:10:25.277Z,97480.41
2023-04-18T15:12:54.391Z,97601.63
2023-04-18T15:15:22.825Z,97616.25
2023-04-18T15:17:53.406Z,97568.03
2023-04-18T15:20:28.441Z,97568.03
2023-04-18T15:22:57.048Z,97618.31
2023-04-18T15:25:26.360Z,97653.69
2023-04-18T15:27:55.220Z,97591.75
2023-04-18T15:30:24.090Z,97618.69
2023-04-18T15:32:56.005Z,97613.53
2023-04-18T15:35:25.225Z,97616.91
2023-04-18T15:37:55.640Z,97615.84
2023-04-18T15:40:24.580Z,97617.63
2023-04-18T15:42:54.425Z,97603.31
2023-04-18T15:45:26.769Z,97621.94
2023-04-18T15:47:57.067Z,97614.41
2023-04-18T15:50:26.156Z,97591.72
2023-04-18T15:52:55.142Z,97609.19
2023-04-18T15:55:23.882Z,97634.38
2023-04-18T15:57:52.653Z,97621.44
2023-04-18T16:00:22.926Z,97632.25
2023-04-18T16:02:52.313Z,97631.66
2023-04-18T16:05:22.780Z,97640.75
2023-04-18T16:07:52.591Z,97642.88
2023-04-18T16:10:22.118Z,97646.53
2023-04-18T16:12:51.556Z,97562.56
2023-04-18T16:15:20.312Z,97634.56
2023-04-18T16:17:49.717Z,97658.09
2023-04-18T16:20:19.286Z,97657.28
2023-04-18T16:22:50.067Z,97662.69
2023-04-18T16:25:19.187Z,97654.72
2023-04-18T16:27:48.056Z,97647.19
2023-04-18T16:30:17.063Z,97644.75
2023-04-18T16:32:46.498Z,97637.09
2023-04-18T16:35:15.760Z,97623.56
2023-04-18T16:37:45.084Z,97654.19
2023-04-18T16:40:16.072Z,97646.28
2023-04-18T16:42:45.182Z,97660.31
2023-04-18T16:45:14.218Z,97660.31
2023-04-18T16:47:43.148Z,97644.94
2023-04-18T16:50:12.428Z,97650.09
2023-04-18T16:52:41.702Z,97642.22
2023-04-18T16:55:11.272Z,97666.81
2023-04-18T16:57:41.198Z,97672.09
2023-04-18T17:00:13.762Z,97571.88
2023-04-18T17:02:43.454Z,97676.16
2023-04-18T17:05:12.434Z,97579.63
2023-04-18T17:07:41.096Z,97682.72
2023-04-18T17:10:11.221Z,97627.66
2023-04-18T17:12:41.187Z,97686.06
2023-04-18T17:15:10.109Z,97670.34
2023-04-18T17:17:38.793Z,97672.81
2023-04-18T17:20:09.029Z,97661.03
2023-04-18T17:22:37.701Z,97652.72
2023-04-18T17:25:08.132Z,97704.53
2023-04-18T17:27:36.662Z,97702.13
2023-04-18T17:30:07.673Z,97702.34
2023-04-18T17:32:36.461Z,97705.91
2023-04-18T17:35:06.149Z,97683.09
2023-04-18T17:37:34.477Z,97710.59
2023-04-18T17:40:06.586Z,97689.56
2023-04-18T17:42:36.044Z,97652.44
2023-04-18T17:45:07.766Z,97716.16
2023-04-18T17:47:36.902Z,97636.13
2023-04-18T17:50:05.598Z,97715.91
2023-04-18T17:52:34.073Z,97719.75
2023-04-18T17:55:02.412Z,97683.41
2023-04-18T17:57:33.182Z,97729.88
2023-04-18T18:00:01.680Z,97718.31
2023-04-18T18:02:31.845Z,97735.19
2023-04-18T18:05:00.266Z,97733.75
2023-04-18T18:07:31.205Z,97736.69
2023-04-18T18:10:00.045Z,97719.34
2023-04-18T18:12:28.478Z,97741.13
2023-04-18T18:14:58.224Z,97736.84
2023-04-18T18:17:26.571Z,97737.56
2023-04-18T18:19:56.433Z,97721.41
2023-04-18T18:22:26.225Z,97744.91
2023-04-18T18:24:54.580Z,97742.47
2023-04-18T18:27:22.905Z,97714.22
2023-04-18T18:29:51.368Z,97708.28
2023-04-18T18:32:20.681Z,97757.28
2023-04-18T18:34:49.091Z,97754.75
2023-04-18T18:37:19.938Z,97732.31
2023-04-18T18:39:48.258Z,97753.75
2023-04-18T18:42:16.856Z,97752.78
2023-04-18T18:44:45.217Z,97714.31
2023-04-18T18:47:13.700Z,97773.97
2023-04-18T18:49:42.392Z,97775.75
2023-04-18T18:52:11.148Z,97748.25
2023-04-18T18:54:40.894Z,97745.06
2023-04-18T18:57:09.268Z,97757.84
2023-04-18T18:59:37.584Z,97758.97
2023-04-18T19:02:53.364Z,97760.00
2023-04-18T19:05:22.192Z,97742.72
2023-04-18T19:07:51.620Z,97694.63
2023-04-18T19:10:21.466Z,97711.09
2023-04-18T19:12:49.930Z,97759.84
2023-04-18T19:15:18.208Z,97686.88
2023-04-18T19:17:46.950Z,97705.81
2023-04-18T19:20:15.480Z,97727.34
2023-04-18T19:22:43.851Z,97808.09
2023-04-18T19:25:12.407Z,97656.91
2023-04-18T19:27:42.445Z,97632.28
2023-04-18T19:30:12.245Z,97759.09
2023-04-18T19:32:40.941Z,97782.03
2023-04-18T19:35:13.385Z,97769.16
2023-04-18T19:37:42.200Z,97767.31
2023-04-18T19:40:12.476Z,97762.81
2023-04-18T19:42:42.436Z,97647.78
2023-04-18T19:45:16.286Z,97710.47
2023-04-18T19:47:45.448Z,97773.53
2023-04-18T19:50:14.000Z,97771.59
2023-04-18T19:52:42.474Z,97757.69
2023-04-18T19:55:12.489Z,97763.44
2023-04-18T19:57:42.469Z,97762.97
2023-04-18T20:00:13.472Z,97711.34
2023-04-18T20:02:43.004Z,97799.34
2023-04-18T20:05:12.957Z,97714.53
2023-04-18T20:07:41.862Z,97756.09
2023-04-18T20:10:11.092Z,97764.63
2023-04-18T20:12:39.661Z,97770.00
2023-04-18T20:15:11.077Z,97727.53
2023-04-18T20:17:39.957Z,97763.66
2023-04-18T20:20:11.729Z,97760.72
2023-04-18T20:22:56.240Z,97757.22
2023-04-18T20:25:24.714Z,97735.19
2023-04-18T20:27:53.403Z,97755.66
2023-04-18T20:30:24.500Z,97693.78
2023-04-18T20:32:53.347Z,97741.13
2023-04-18T20:35:22.535Z,97747.91
2023-04-18T20:37:51.113Z,97751.47
2023-04-18T20:40:20.863Z,97708.66
2023-04-18T20:42:52.683Z,97721.53
2023-04-18T20:45:24.332Z,97757.75
2023-04-18T20:48:05.018Z,97724.06
2023-04-18T20:50:41.616Z,97736.56
2023-04-18T20:53:10.734Z,97740.28
2023-04-18T20:55:40.833Z,97753.66
2023-04-18T20:58:09.813Z,97419.44
2023-04-18T21:00:41.931Z,97751.28
2023-04-18T21:03:11.664Z,97719.28
2023-04-18T21:05:41.839Z,97739.88
2023-04-18T21:08:11.216Z,97740.59
2023-04-18T21:10:40.662Z,97744.22
2023-04-18T21:13:09.411Z,97727.78
2023-04-18T21:15:40.737Z,97733.59
2023-04-18T21:18:09.977Z,97742.31
2023-04-18T21:20:38.807Z,97706.34
2023-04-18T21:23:08.167Z,97727.56
2023-04-18T21:25:36.985Z,97600.50
2023-04-18T21:28:08.092Z,97740.19
2023-04-18T21:30:36.729Z,97744.41
2023-04-18T21:33:07.851Z,97730.00
2023-04-18T21:35:37.123Z,97715.94
2023-04-18T21:38:09.434Z,97704.00
2023-04-18T21:40:45.939Z,97723.72
2023-04-18T21:43:14.862Z,97733.31
2023-04-18T21:45:44.055Z,97730.78
2023-04-18T21:48:15.197Z,97659.22
2023-04-18T21:50:44.501Z,97679.03
2023-04-18T21:53:24.885Z,97709.63
2023-04-18T21:55:54.313Z,97738.06
2023-04-18T21:58:23.393Z,97722.81
2023-04-18T22:00:52.226Z,97727.56
2023-04-18T22:03:22.775Z,97756.91
2023-04-18T22:05:53.676Z,97750.41
2023-04-18T22:08:23.958Z,97761.44
2023-04-18T22:10:55.772Z,97761.34
2023-04-18T22:13:26.398Z,97751.38
2023-04-18T22:15:57.029Z,97759.53
2023-04-18T22:18:30.843Z,97711.69
2023-04-18T22:21:00.319Z,97735.88
2023-04-18T22:23:31.483Z,97751.38
2023-04-18T22:26:00.707Z,97730.56
2023-04-18T22:28:29.701Z,97709.97
2023-04-18T22:30:58.669Z,97739.03
2023-04-18T22:33:29.085Z,97461.81
2023-04-18T22:35:58.330Z,97756.78
2023-04-18T22:38:26.905Z,97750.59
2023-04-18T22:40:55.615Z,97724.72
2023-04-18T22:43:27.678Z,97760.72
2023-04-18T22:45:57.058Z,97752.03
2023-04-18T22:48:26.016Z,97751.38
2023-04-18T22:50:56.744Z,97755.47
2023-04-18T22:53:35.037Z,97747.72
2023-04-18T22:56:03.491Z,97732.22
2023-04-18T22:58:42.969Z,97643.72
2023-04-18T23:01:13.279Z,97763.34
2023-04-18T23:03:41.933Z,97762.50
2023-04-18T23:06:12.460Z,97738.47
2023-04-18T23:08:42.054Z,97762.25
2023-04-18T23:11:14.225Z,97772.69
2023-04-18T23:13:45.908Z,97740.63
2023-04-18T23:16:34.636Z,97766.66
2023-04-18T23:19:23.463Z,97762.78
2023-04-18T23:22:11.396Z,97755.72
2023-04-18T23:24:46.436Z,97756.75
2023-04-18T23:27:29.441Z,97752.47
2023-04-18T23:30:13.885Z,97752.72
2023-04-18T23:32:59.154Z,97759.91
2023-04-18T23:35:56.080Z,97746.56
2023-04-18T23:38:43.334Z,97743.97
2023-04-18T23:41:12.206Z,97691.72
2023-04-18T23:43:41.136Z,97733.78
2023-04-18T23:46:10.848Z,97697.81
2023-04-18T23:48:45.255Z,97721.28
2023-04-18T23:51:18.954Z,97721.28
2023-04-18T23:53:49.391Z,97721.09
2023-04-18T23:56:18.686Z,97714.69
2023-04-18T23:58:47.010Z,97711.22
